createdAt,value
2016-02-04T00:00:04.508Z,99.99
2016-02-04T00:01:04.482Z,99.99
2016-02-04T00:02:04.454Z,99.39
2016-02-04T00:03:04.440Z,99.99
2016-02-04T00:04:04.396Z,99.87
2016-02-04T00:05:04.368Z,99.99
2016-02-04T00:06:04.339Z,99.99
2016-02-04T00:07:04.311Z,99.99
2016-02-04T00:08:04.297Z,99.3
2016-02-04T00:09:04.269Z,99.3
2016-02-04T00:10:04.240Z,99.49
2016-02-04T00:11:04.212Z,99.49
2016-02-04T00:12:08.605Z,99.99
2016-02-04T00:13:04.159Z,99.99
2016-02-04T00:14:04.130Z,99.99
2016-02-04T00:15:04.101Z,99.87
2016-02-04T00:16:04.073Z,99.99
2016-02-04T00:17:04.044Z,99.99
2016-02-04T00:18:04.016Z,99.99
2016-02-04T00:19:03.987Z,99.99
2016-02-04T00:20:08.662Z,99.87
2016-02-04T00:21:03.930Z,99.87
2016-02-04T00:22:03.902Z,99.99
2016-02-04T00:23:03.873Z,99.99
2016-02-04T00:24:03.845Z,99.77
2016-02-04T00:25:03.817Z,99.99
2016-02-04T00:26:03.787Z,99.96
2016-02-04T00:27:03.775Z,99.99
2016-02-04T00:28:03.731Z,99.99
2016-02-04T00:29:03.703Z,99.39
2016-02-04T00:30:03.689Z,99.77
2016-02-04T00:31:03.661Z,99.77
2016-02-04T00:32:03.632Z,99.77
2016-02-04T00:33:03.589Z,99.77
2016-02-04T00:34:03.576Z,99.58
2016-02-04T00:35:03.548Z,99.58
2016-02-04T00:36:03.518Z,99.77
2016-02-04T00:37:03.490Z,99.58
2016-02-04T00:38:03.462Z,99.77
2016-02-04T00:39:03.433Z,99.77
2016-02-04T00:40:03.404Z,99.96
2016-02-04T00:41:03.381Z,99.77
2016-02-04T00:42:03.353Z,99.39
2016-02-04T00:43:03.325Z,99.58
2016-02-04T00:44:03.296Z,99.99
2016-02-04T00:45:03.268Z,99.99
2016-02-04T00:46:03.240Z,99.96
2016-02-04T00:47:03.212Z,99.87
2016-02-04T00:48:03.183Z,99.99
2016-02-04T00:49:03.158Z,99.99
2016-02-04T00:50:03.130Z,99.99
2016-02-04T00:51:03.101Z,99.99
2016-02-04T00:52:03.074Z,99.87
2016-02-04T00:53:03.045Z,99.87
2016-02-04T00:54:03.017Z,99.96
2016-02-04T00:55:07.817Z,99.99
2016-02-04T00:56:02.959Z,99.49
2016-02-04T00:57:02.932Z,99.3
2016-02-04T00:58:02.904Z,99.87
2016-02-04T00:59:02.874Z,99.87
2016-02-04T01:00:02.843Z,99.87
2016-02-04T01:01:02.815Z,99.87
2016-02-04T01:02:02.787Z,99.49
2016-02-04T01:03:07.199Z,99.77
2016-02-04T01:04:02.730Z,99.87
2016-02-04T01:05:02.718Z,99.49
2016-02-04T01:06:02.689Z,99.77
2016-02-04T01:07:02.645Z,99.96
2016-02-04T01:08:02.616Z,99.96
2016-02-04T01:09:02.589Z,99.49
2016-02-04T01:10:02.561Z,99.77
2016-02-04T01:11:02.531Z,99.87
2016-02-04T01:12:02.504Z,99.96
2016-02-04T01:13:07.085Z,99.99
2016-02-04T01:14:02.462Z,99.99
2016-02-04T01:15:02.411Z,99.99
2016-02-04T01:16:02.371Z,99.99
2016-02-04T01:17:02.334Z,99.99
2016-02-04T01:18:02.293Z,99.99
2016-02-04T01:19:02.253Z,99.99
2016-02-04T01:20:02.219Z,99.99
2016-02-04T01:21:06.921Z,99.99
2016-02-04T01:22:02.170Z,99.99
2016-02-04T01:23:02.121Z,99.99
2016-02-04T01:24:02.092Z,99.99
2016-02-04T01:25:02.061Z,99.99
2016-02-04T01:26:02.030Z,99.99
2016-02-04T01:27:02.000Z,99.99
2016-02-04T01:28:01.971Z,99.99
2016-02-04T01:29:01.941Z,99.99
2016-02-04T01:30:01.911Z,99.99
2016-02-04T01:31:01.882Z,99.99
2016-02-04T01:32:01.869Z,99.99
2016-02-04T01:33:01.840Z,99.99
2016-02-04T01:34:01.795Z,99.99
2016-02-04T01:35:01.782Z,99.99
2016-02-04T01:36:01.756Z,99.99
2016-02-04T01:37:01.726Z,99.87
2016-02-04T01:38:01.682Z,99.99
2016-02-04T01:39:01.669Z,99.68
2016-02-04T01:40:01.640Z,99.68
2016-02-04T01:41:01.611Z,99.99
2016-02-04T01:42:01.583Z,99.99
2016-02-04T01:43:01.555Z,99.99
2016-02-04T01:44:01.526Z,99.99
2016-02-04T01:45:01.497Z,99.99
2016-02-04T01:46:01.465Z,99.77
2016-02-04T01:47:01.436Z,99.99
2016-02-04T01:48:01.408Z,99.96
2016-02-04T01:49:01.379Z,99.99
2016-02-04T01:50:01.351Z,99.99
2016-02-04T01:51:01.323Z,99.99
2016-02-04T01:52:01.310Z,99.99
2016-02-04T01:53:01.281Z,99.99
2016-02-04T01:54:01.237Z,99.99
2016-02-04T01:55:01.208Z,99.99
2016-02-04T01:56:01.181Z,99.96
2016-02-04T01:57:01.167Z,99.96
2016-02-04T01:58:01.139Z,99.99
2016-02-04T01:59:01.110Z,99.87
2016-02-04T02:00:01.082Z,99.99
2016-02-04T02:01:01.053Z,99.68
2016-02-04T02:02:01.025Z,99.87
2016-02-04T02:03:00.996Z,99.87
2016-02-04T02:04:00.967Z,99.68
2016-02-04T02:05:00.939Z,99.96
2016-02-04T02:06:05.536Z,99.99
2016-02-04T02:07:00.882Z,99.99
2016-02-04T02:08:00.854Z,99.99
2016-02-04T02:09:00.826Z,99.99
2016-02-04T02:10:00.798Z,99.87
2016-02-04T02:11:00.769Z,99.96
2016-02-04T02:12:00.740Z,99.87
2016-02-04T02:13:00.711Z,99.99
2016-02-04T02:14:05.198Z,99.99
2016-02-04T02:15:00.654Z,99.99
2016-02-04T02:16:00.625Z,99.99
2016-02-04T02:17:00.603Z,99.99
2016-02-04T02:18:00.577Z,99.99
2016-02-04T02:19:00.547Z,99.99
2016-02-04T02:20:00.519Z,99.99
2016-02-04T02:21:00.490Z,99.99
2016-02-04T02:22:00.462Z,99.99
2016-02-04T02:23:00.433Z,99.99
2016-02-04T02:24:00.404Z,99.99
2016-02-04T02:25:00.376Z,99.99
2016-02-04T02:26:00.348Z,99.99
2016-02-04T02:27:00.318Z,99.77
2016-02-04T02:28:00.290Z,99.77
2016-02-04T02:29:00.262Z,99.99
2016-02-04T02:30:00.249Z,99.99
2016-02-04T02:31:00.221Z,99.99
2016-02-04T02:32:00.193Z,99.96
2016-02-04T02:33:00.163Z,99.87
2016-02-04T02:34:04.370Z,99.87
2016-02-04T02:35:00.106Z,99.99
2016-02-04T02:36:00.079Z,99.99
2016-02-04T02:37:00.049Z,99.99
2016-02-04T02:38:00.021Z,99.99
2016-02-04T02:38:59.990Z,99.99
2016-02-04T02:39:59.962Z,99.99
2016-02-04T02:40:59.934Z,99.99
2016-02-04T02:42:04.002Z,99.99
2016-02-04T02:42:59.893Z,99.99
2016-02-04T02:43:59.864Z,99.99
2016-02-04T02:44:59.819Z,99.99
2016-02-04T02:45:59.791Z,99.99
2016-02-04T02:46:59.763Z,99.99
2016-02-04T02:47:59.737Z,99.99
2016-02-04T02:48:59.707Z,99.99
2016-02-04T02:49:59.679Z,99.99
2016-02-04T02:50:59.650Z,99.99
2016-02-04T02:51:59.626Z,99.87
2016-02-04T02:53:03.895Z,99.99
2016-02-04T02:53:59.568Z,99.77
2016-02-04T02:54:59.588Z,99.99
2016-02-04T02:55:59.512Z,99.87
2016-02-04T02:56:59.499Z,99.96
2016-02-04T02:57:59.455Z,99.99
2016-02-04T02:58:59.427Z,99.96
2016-02-04T02:59:59.400Z,99.3
2016-02-04T03:01:03.823Z,99.77
2016-02-04T03:01:59.358Z,99.49
2016-02-04T03:02:59.329Z,99.58
2016-02-04T03:03:59.300Z,99.49
2016-02-04T03:04:59.272Z,99.3
2016-02-04T03:05:59.244Z,99.3
2016-02-04T03:06:59.215Z,99.11
2016-02-04T03:07:59.186Z,99.01
2016-02-04T03:08:59.157Z,99.3
2016-02-04T03:09:59.129Z,99.3
2016-02-04T03:10:59.101Z,99.2
2016-02-04T03:11:59.072Z,98.92
2016-02-04T03:12:59.044Z,99.11
2016-02-04T03:13:59.015Z,99.49
2016-02-04T03:14:58.986Z,99.39
2016-02-04T03:15:58.958Z,99.2
2016-02-04T03:16:58.930Z,99.39
2016-02-04T03:17:58.902Z,99.58
2016-02-04T03:18:58.876Z,99.2
2016-02-04T03:19:58.849Z,99.2
2016-02-04T03:20:58.821Z,98.92
2016-02-04T03:21:58.808Z,99.58
2016-02-04T03:22:58.764Z,99.49
2016-02-04T03:23:58.737Z,99.39
2016-02-04T03:24:58.709Z,99.3
2016-02-04T03:25:58.680Z,99.39
2016-02-04T03:26:58.652Z,99.58
2016-02-04T03:27:58.623Z,99.68
2016-02-04T03:28:58.595Z,99.72
2016-02-04T03:29:58.565Z,99.91
2016-02-04T03:30:58.537Z,99.91
2016-02-04T03:31:58.510Z,99.44
2016-02-04T03:32:58.482Z,99.99
2016-02-04T03:33:58.453Z,99.99
2016-02-04T03:34:58.424Z,99.99
2016-02-04T03:35:58.400Z,99.82
2016-02-04T03:36:58.372Z,99.99
2016-02-04T03:37:58.343Z,99.99
2016-02-04T03:39:02.565Z,99.99
2016-02-04T03:39:58.287Z,99.99
2016-02-04T03:40:58.259Z,99.99
2016-02-04T03:41:58.229Z,99.99
2016-02-04T03:42:58.202Z,99.99
2016-02-04T03:43:58.173Z,99.91
2016-02-04T03:44:58.145Z,99.99
2016-02-04T03:45:58.116Z,99.99
2016-02-04T03:47:02.478Z,99.99
2016-02-04T03:47:58.082Z,99.99
2016-02-04T03:48:58.023Z,99.99
2016-02-04T03:49:58.010Z,99.91
2016-02-04T03:50:57.982Z,99.82
2016-02-04T03:52:02.360Z,99.91
2016-02-04T03:52:57.910Z,99.91
2016-02-04T03:53:57.880Z,99.77
2016-02-04T03:54:57.868Z,99.99
2016-02-04T03:55:57.842Z,99.99
2016-02-04T03:56:57.812Z,99.99
2016-02-04T03:57:57.768Z,99.99
2016-02-04T03:58:57.740Z,99.99
2016-02-04T04:00:02.242Z,99.99
2016-02-04T04:00:57.698Z,99.99
2016-02-04T04:01:57.670Z,99.96
2016-02-04T04:02:57.644Z,99.99
2016-02-04T04:03:57.614Z,99.99
2016-02-04T04:04:57.586Z,99.96
2016-02-04T04:05:57.558Z,99.99
2016-02-04T04:06:57.530Z,99.99
2016-02-04T04:07:57.505Z,99.99
2016-02-04T04:08:57.461Z,99.99
2016-02-04T04:09:57.431Z,99.87
2016-02-04T04:10:57.405Z,99.87
2016-02-04T04:11:57.377Z,99.96
2016-02-04T04:12:57.363Z,99.87
2016-02-04T04:13:57.319Z,99.87
2016-02-04T04:14:57.307Z,99.87
2016-02-04T04:15:57.276Z,99.99
2016-02-04T04:16:57.242Z,99.99
2016-02-04T04:17:57.214Z,99.99
2016-02-04T04:18:57.186Z,99.3
2016-02-04T04:19:57.172Z,99.44
2016-02-04T04:20:57.128Z,99.77
2016-02-04T04:21:57.100Z,99.49
2016-02-04T04:22:57.075Z,99.99
2016-02-04T04:23:57.045Z,99.99
2016-02-04T04:24:57.017Z,99.49
2016-02-04T04:25:56.989Z,99.3
2016-02-04T04:26:56.960Z,99.63
2016-02-04T04:28:01.760Z,99.44
2016-02-04T04:28:56.904Z,99.99
2016-02-04T04:29:56.875Z,99.44
2016-02-04T04:30:56.847Z,99.72
2016-02-04T04:31:56.818Z,99.44
2016-02-04T04:32:56.790Z,99.99
2016-02-04T04:33:56.762Z,99.44
2016-02-04T04:34:56.735Z,99.44
2016-02-04T04:36:01.394Z,99.82
2016-02-04T04:36:56.678Z,99.82
2016-02-04T04:37:56.649Z,99.53
2016-02-04T04:38:56.621Z,99.25
2016-02-04T04:39:56.592Z,99.99
2016-02-04T04:40:56.563Z,99.53
2016-02-04T04:41:56.536Z,99.99
2016-02-04T04:42:56.507Z,99.99
2016-02-04T04:43:56.478Z,99.99
2016-02-04T04:44:56.450Z,99.99
2016-02-04T04:45:56.422Z,99.82
2016-02-04T04:46:56.396Z,99.91
2016-02-04T04:47:56.368Z,99.91
2016-02-04T04:48:56.339Z,99.91
2016-02-04T04:49:56.327Z,99.82
2016-02-04T04:50:56.283Z,99.82
2016-02-04T04:51:56.254Z,99.91
2016-02-04T04:52:56.226Z,99.91
2016-02-04T04:53:56.198Z,99.99
2016-02-04T04:54:56.168Z,99.99
2016-02-04T04:55:56.140Z,99.99
2016-02-04T04:56:56.111Z,99.82
2016-02-04T04:57:56.083Z,99.99
2016-02-04T04:58:56.054Z,99.91
2016-02-04T04:59:56.026Z,99.72
2016-02-04T05:00:55.998Z,99.99
2016-02-04T05:01:55.970Z,99.44
2016-02-04T05:02:55.940Z,99.82
2016-02-04T05:03:55.912Z,99.63
2016-02-04T05:04:55.884Z,99.72
2016-02-04T05:05:55.856Z,99.72
2016-02-04T05:06:55.829Z,99.53
2016-02-04T05:07:55.801Z,99.53
2016-02-04T05:08:55.773Z,99.44
2016-02-04T05:09:55.744Z,99.82
2016-02-04T05:10:59.934Z,99.44
2016-02-04T05:11:55.687Z,99.82
2016-02-04T05:12:55.658Z,99.82
2016-02-04T05:13:55.630Z,99.91
2016-02-04T05:14:55.601Z,99.91
2016-02-04T05:15:55.573Z,99.53
2016-02-04T05:16:55.546Z,99.44
2016-02-04T05:17:55.518Z,99.82
2016-02-04T05:18:59.852Z,99.53
2016-02-04T05:19:55.463Z,99.82
2016-02-04T05:20:55.435Z,99.53
2016-02-04T05:21:55.407Z,99.44
2016-02-04T05:22:55.378Z,99.44
2016-02-04T05:23:55.350Z,99.72
2016-02-04T05:24:55.307Z,99.53
2016-02-04T05:25:55.278Z,99.82
2016-02-04T05:26:55.265Z,99.82
2016-02-04T05:27:55.237Z,99.82
2016-02-04T05:28:58.598Z,99.91
2016-02-04T05:29:55.179Z,99.82
2016-02-04T05:30:55.150Z,99.91
2016-02-04T05:31:55.107Z,99.91
2016-02-04T05:32:55.095Z,99.99
2016-02-04T05:33:55.051Z,99.82
2016-02-04T05:34:55.023Z,99.99
2016-02-04T05:35:54.991Z,99.99
2016-02-04T05:36:58.543Z,99.99
2016-02-04T05:37:54.949Z,99.99
2016-02-04T05:38:54.910Z,99.99
2016-02-04T05:39:54.881Z,99.99
2016-02-04T05:40:54.853Z,99.99
2016-02-04T05:41:54.824Z,99.99
2016-02-04T05:42:54.796Z,99.63
2016-02-04T05:43:54.767Z,99.99
2016-02-04T05:44:54.738Z,99.91
2016-02-04T05:45:54.725Z,99.99
2016-02-04T05:46:54.682Z,99.99
2016-02-04T05:47:54.652Z,99.99
2016-02-04T05:48:54.624Z,99.99
2016-02-04T05:49:54.596Z,99.99
2016-02-04T05:50:54.567Z,99.99
2016-02-04T05:51:54.542Z,99.99
2016-02-04T05:52:54.514Z,99.99
2016-02-04T05:53:54.485Z,99.99
2016-02-04T05:54:54.456Z,99.99
2016-02-04T05:55:54.428Z,99.99
2016-02-04T05:56:54.400Z,99.99
2016-02-04T05:57:54.372Z,99.99
2016-02-04T05:58:54.343Z,99.99
2016-02-04T05:59:54.315Z,99.99
2016-02-04T06:00:54.286Z,99.99
2016-02-04T06:01:54.258Z,99.99
2016-02-04T06:02:54.229Z,99.99
2016-02-04T06:03:54.204Z,99.99
2016-02-04T06:04:54.175Z,99.99
2016-02-04T06:05:54.147Z,99.99
2016-02-04T06:06:54.117Z,99.99
2016-02-04T06:07:54.089Z,99.99
2016-02-04T06:08:54.061Z,99.99
2016-02-04T06:09:54.033Z,99.99
2016-02-04T06:10:54.006Z,99.99
2016-02-04T06:11:53.978Z,99.99
2016-02-04T06:12:54.027Z,99.99
2016-02-04T06:13:53.922Z,99.99
2016-02-04T06:14:53.892Z,99.99
2016-02-04T06:15:53.866Z,99.99
2016-02-04T06:16:53.837Z,99.99
2016-02-04T06:17:53.809Z,99.99
2016-02-04T06:18:53.781Z,99.99
2016-02-04T06:19:53.753Z,99.99
2016-02-04T06:20:53.725Z,99.99
2016-02-04T06:21:57.914Z,99.99
2016-02-04T06:22:53.668Z,99.99
2016-02-04T06:23:53.640Z,99.99
2016-02-04T06:24:53.612Z,99.99
2016-02-04T06:25:53.583Z,99.99
2016-02-04T06:26:53.554Z,99.99
2016-02-04T06:27:53.526Z,99.99
2016-02-04T06:28:53.498Z,99.99
2016-02-04T06:29:57.860Z,99.99
2016-02-04T06:30:53.441Z,99.99
2016-02-04T06:31:53.413Z,99.99
2016-02-04T06:32:57.727Z,99.99
2016-02-04T06:33:53.355Z,99.99
2016-02-04T06:34:53.327Z,99.99
2016-02-04T06:35:53.300Z,99.99
2016-02-04T06:36:53.272Z,99.99
2016-02-04T06:37:53.245Z,99.96
2016-02-04T06:38:53.217Z,99.96
2016-02-04T06:39:53.188Z,99.99
2016-02-04T06:40:56.863Z,99.99
2016-02-04T06:41:53.147Z,99.96
2016-02-04T06:42:53.103Z,99.96
2016-02-04T06:43:53.075Z,99.99
2016-02-04T06:44:53.047Z,99.99
2016-02-04T06:45:53.017Z,99.99
2016-02-04T06:46:53.020Z,99.99
2016-02-04T06:47:52.976Z,99.99
2016-02-04T06:48:52.932Z,99.99
2016-02-04T06:49:52.903Z,99.99
2016-02-04T06:50:52.875Z,99.99
2016-02-04T06:51:52.862Z,99.99
2016-02-04T06:52:52.823Z,99.99
2016-02-04T06:53:52.794Z,99.99
2016-02-04T06:54:52.767Z,99.87
2016-02-04T06:55:52.738Z,99.87
2016-02-04T06:56:52.708Z,99.99
2016-02-04T06:57:52.680Z,99.99
2016-02-04T06:58:52.652Z,99.99
2016-02-04T06:59:52.624Z,99.99
2016-02-04T07:00:52.611Z,99.99
2016-02-04T07:01:52.583Z,99.99
2016-02-04T07:02:52.540Z,99.99
2016-02-04T07:03:52.511Z,99.87
2016-02-04T07:04:52.482Z,99.99
2016-02-04T07:05:52.454Z,99.96
2016-02-04T07:06:52.440Z,99.99
2016-02-04T07:07:52.412Z,99.96
2016-02-04T07:08:52.368Z,99.96
2016-02-04T07:09:52.355Z,99.99
2016-02-04T07:10:52.326Z,99.87
2016-02-04T07:11:52.298Z,99.77
2016-02-04T07:12:52.270Z,99.99
2016-02-04T07:13:52.242Z,99.99
2016-02-04T07:14:52.201Z,99.99
2016-02-04T07:15:52.188Z,99.99
2016-02-04T07:16:52.206Z,99.96
2016-02-04T07:17:52.131Z,99.99
2016-02-04T07:18:52.102Z,99.99
2016-02-04T07:19:52.074Z,99.99
2016-02-04T07:20:52.039Z,99.96
2016-02-04T07:21:52.011Z,99.99
2016-02-04T07:22:51.981Z,99.99
2016-02-04T07:23:51.952Z,99.87
2016-02-04T07:24:51.941Z,99.96
2016-02-04T07:25:55.974Z,99.99
2016-02-04T07:26:51.867Z,99.99
2016-02-04T07:27:51.889Z,99.99
2016-02-04T07:28:51.829Z,99.99
2016-02-04T07:29:51.800Z,99.99
2016-02-04T07:30:51.771Z,99.99
2016-02-04T07:31:51.745Z,99.87
2016-02-04T07:32:51.702Z,99.99
2016-02-04T07:33:55.861Z,99.99
2016-02-04T07:34:51.662Z,99.99
2016-02-04T07:35:51.618Z,99.99
2016-02-04T07:36:51.605Z,99.99
2016-02-04T07:37:51.576Z,99.68
2016-02-04T07:38:51.548Z,99.99
2016-02-04T07:39:55.990Z,99.99
2016-02-04T07:40:51.492Z,99.99
2016-02-04T07:41:51.467Z,99.99
2016-02-04T07:42:51.438Z,99.99
2016-02-04T07:43:51.409Z,99.99
2016-02-04T07:44:51.380Z,99.99
2016-02-04T07:45:51.352Z,99.99
2016-02-04T07:46:51.325Z,99.99
2016-02-04T07:47:55.781Z,99.99
2016-02-04T07:48:51.299Z,99.99
2016-02-04T07:49:51.239Z,99.99
2016-02-04T07:50:51.226Z,99.99
2016-02-04T07:51:51.184Z,99.91
2016-02-04T07:52:51.158Z,99.91
2016-02-04T07:53:51.130Z,99.99
2016-02-04T07:54:51.103Z,99.73
2016-02-04T07:55:51.074Z,99.54
2016-02-04T07:56:51.155Z,99.82
2016-02-04T07:57:51.017Z,99.91
2016-02-04T07:58:50.989Z,99.82
2016-02-04T07:59:50.964Z,99.35
2016-02-04T08:00:50.952Z,99.26
2016-02-04T08:01:50.908Z,99.01
2016-02-04T08:02:50.894Z,99.01
2016-02-04T08:03:50.866Z,99.44
2016-02-04T08:04:50.825Z,99.54
2016-02-04T08:05:50.812Z,98.97
2016-02-04T08:06:50.772Z,99.54
2016-02-04T08:07:50.744Z,99.2
2016-02-04T08:08:50.731Z,99.54
2016-02-04T08:09:50.718Z,99.44
2016-02-04T08:10:50.674Z,99.39
2016-02-04T08:11:50.647Z,99.39
2016-02-04T08:12:50.617Z,99.44
2016-02-04T08:13:50.590Z,99.49
2016-02-04T08:14:50.562Z,99.49
2016-02-04T08:15:50.533Z,99.39
2016-02-04T08:16:50.504Z,99.39
2016-02-04T08:17:50.475Z,99.49
2016-02-04T08:18:50.447Z,99.58
2016-02-04T08:19:50.419Z,99.39
2016-02-04T08:20:50.390Z,99.3
2016-02-04T08:21:50.362Z,99.77
2016-02-04T08:22:53.930Z,99.35
2016-02-04T08:23:50.320Z,99.63
2016-02-04T08:24:50.276Z,99.63
2016-02-04T08:25:50.264Z,99.16
2016-02-04T08:26:50.235Z,99.11
2016-02-04T08:27:50.206Z,99.26
2016-02-04T08:28:50.178Z,99.99
2016-02-04T08:29:50.149Z,99.39
2016-02-04T08:30:52.574Z,99.54
2016-02-04T08:31:50.091Z,99.01
2016-02-04T08:32:50.063Z,99.06
2016-02-04T08:33:50.035Z,99.39
2016-02-04T08:34:50.007Z,99.11
2016-02-04T08:35:49.977Z,99.49
2016-02-04T08:36:49.949Z,99.3
2016-02-04T08:37:49.921Z,99.63
2016-02-04T08:38:49.893Z,99.49
2016-02-04T08:39:49.864Z,99.3
2016-02-04T08:40:49.852Z,99.58
2016-02-04T08:41:49.822Z,99.77
2016-02-04T08:42:49.794Z,99.39
2016-02-04T08:43:49.771Z,99.58
2016-02-04T08:44:49.743Z,99.49
2016-02-04T08:45:49.700Z,99.49
2016-02-04T08:46:49.686Z,99.49
2016-02-04T08:47:49.658Z,99.49
2016-02-04T08:48:49.629Z,99.87
2016-02-04T08:49:49.600Z,99.49
2016-02-04T08:50:49.574Z,99.49
2016-02-04T08:51:49.541Z,99.68
2016-02-04T08:52:49.513Z,99.77
2016-02-04T08:53:49.499Z,99.77
2016-02-04T08:54:49.455Z,99.3
2016-02-04T08:55:49.488Z,99.87
2016-02-04T08:56:49.399Z,99.49
2016-02-04T08:57:49.369Z,99.49
2016-02-04T08:58:49.607Z,99.49
2016-02-04T08:59:49.327Z,99.68
2016-02-04T09:00:49.299Z,99.77
2016-02-04T09:01:49.271Z,99.49
2016-02-04T09:02:49.242Z,99.87
2016-02-04T09:03:49.214Z,99.99
2016-02-04T09:04:49.186Z,99.49
2016-02-04T09:05:49.157Z,99.87
2016-02-04T09:06:49.505Z,99.58
2016-02-04T09:07:49.100Z,99.49
2016-02-04T09:08:49.072Z,99.39
2016-02-04T09:09:49.059Z,99.39
2016-02-04T09:10:49.016Z,99.39
2016-02-04T09:11:49.456Z,99.58
2016-02-04T09:12:48.958Z,99.58
2016-02-04T09:13:48.933Z,99.3
2016-02-04T09:14:48.905Z,99.01
2016-02-04T09:15:48.876Z,99.01
2016-02-04T09:16:48.848Z,99.58
2016-02-04T09:17:48.835Z,99.49
2016-02-04T09:18:48.807Z,99.49
2016-02-04T09:19:49.348Z,99.58
2016-02-04T09:20:48.759Z,99.58
2016-02-04T09:21:48.715Z,99.87
2016-02-04T09:22:48.687Z,99.77
2016-02-04T09:23:48.660Z,99.77
2016-02-04T09:24:48.631Z,99.68
2016-02-04T09:25:48.603Z,99.58
2016-02-04T09:26:48.573Z,99.49
2016-02-04T09:27:48.545Z,99.58
2016-02-04T09:28:48.532Z,99.39
2016-02-04T09:29:48.503Z,99.49
2016-02-04T09:30:48.476Z,99.49
2016-02-04T09:31:48.448Z,99.49
2016-02-04T09:32:48.418Z,99.49
2016-02-04T09:33:48.391Z,99.96
2016-02-04T09:34:48.363Z,99.87
2016-02-04T09:35:48.334Z,99.77
2016-02-04T09:36:48.305Z,99.77
2016-02-04T09:37:48.276Z,99.49
2016-02-04T09:38:48.264Z,99.99
2016-02-04T09:39:48.220Z,99.99
2016-02-04T09:40:48.190Z,99.99
2016-02-04T09:41:48.178Z,99.49
2016-02-04T09:42:48.134Z,99.58
2016-02-04T09:43:48.120Z,99.68
2016-02-04T09:44:48.092Z,99.58
2016-02-04T09:45:48.064Z,99.77
2016-02-04T09:46:48.036Z,99.58
2016-02-04T09:47:48.007Z,99.77
2016-02-04T09:48:47.979Z,99.99
2016-02-04T09:49:47.950Z,99.96
2016-02-04T09:50:47.923Z,99.96
2016-02-04T09:51:47.894Z,99.99
2016-02-04T09:52:47.866Z,99.99
2016-02-04T09:53:47.837Z,99.99
2016-02-04T09:54:47.812Z,99.96
2016-02-04T09:55:47.783Z,99.99
2016-02-04T09:56:47.756Z,99.96
2016-02-04T09:57:47.728Z,99.77
2016-02-04T09:58:47.699Z,99.87
2016-02-04T09:59:47.670Z,99.68
2016-02-04T10:00:47.642Z,99.87
2016-02-04T10:01:47.801Z,99.77
2016-02-04T10:02:47.588Z,99.77
2016-02-04T10:03:47.559Z,99.77
2016-02-04T10:04:47.546Z,99.39
2016-02-04T10:05:47.517Z,99.58
2016-02-04T10:06:47.490Z,99.3
2016-02-04T10:07:47.462Z,99.49
2016-02-04T10:08:47.433Z,99.58
2016-02-04T10:09:47.576Z,99.58
2016-02-04T10:10:47.376Z,99.49
2016-02-04T10:11:47.347Z,99.87
2016-02-04T10:12:47.319Z,99.58
2016-02-04T10:13:47.290Z,99.39
2016-02-04T10:14:47.278Z,99.58
2016-02-04T10:15:47.248Z,99.3
2016-02-04T10:16:47.220Z,99.3
2016-02-04T10:17:47.192Z,99.39
2016-02-04T10:18:47.161Z,99.58
2016-02-04T10:19:47.134Z,99.39
2016-02-04T10:20:47.277Z,99.39
2016-02-04T10:21:47.063Z,99.3
2016-02-04T10:22:47.022Z,99.39
2016-02-04T10:23:46.982Z,99.49
2016-02-04T10:24:46.942Z,99.58
2016-02-04T10:25:46.901Z,99.77
2016-02-04T10:26:46.867Z,99.68
2016-02-04T10:27:46.835Z,99.3
2016-02-04T10:28:47.052Z,99.39
2016-02-04T10:29:46.770Z,99.3
2016-02-04T10:30:46.736Z,99.68
2016-02-04T10:31:46.706Z,99.58
2016-02-04T10:32:46.691Z,99.3
2016-02-04T10:33:46.646Z,99.39
2016-02-04T10:34:46.616Z,99.68
2016-02-04T10:35:46.602Z,99.3
2016-02-04T10:36:46.572Z,99.39
2016-02-04T10:37:46.544Z,99.77
2016-02-04T10:38:46.515Z,99.87
2016-02-04T10:39:46.486Z,99.87
2016-02-04T10:40:46.456Z,99.49
2016-02-04T10:41:46.428Z,99.68
2016-02-04T10:42:46.399Z,99.3
2016-02-04T10:43:46.371Z,99.58
2016-02-04T10:44:46.344Z,99.49
2016-02-04T10:45:46.316Z,99.3
2016-02-04T10:46:46.288Z,99.11
2016-02-04T10:47:46.259Z,99.2
2016-02-04T10:48:46.230Z,99.39
2016-02-04T10:49:46.202Z,99.3
2016-02-04T10:50:46.518Z,99.2
2016-02-04T10:51:46.161Z,99.01
2016-02-04T10:52:46.133Z,99.3
2016-02-04T10:53:46.104Z,99.39
2016-02-04T10:54:46.076Z,99.58
2016-02-04T10:55:46.048Z,99.3
2016-02-04T10:56:46.020Z,99.2
2016-02-04T10:57:46.006Z,99.3
2016-02-04T10:58:46.306Z,99.3
2016-02-04T10:59:45.935Z,99.3
2016-02-04T11:00:45.907Z,99.01
2016-02-04T11:01:45.878Z,99.2
2016-02-04T11:02:45.896Z,99.11
2016-02-04T11:03:45.837Z,99.3
2016-02-04T11:04:45.808Z,99.3
2016-02-04T11:05:45.779Z,99.2
2016-02-04T11:06:45.755Z,99.49
2016-02-04T11:07:45.727Z,99.39
2016-02-04T11:08:45.697Z,99.49
2016-02-04T11:09:45.669Z,99.3
2016-02-04T11:10:45.672Z,99.2
2016-02-04T11:11:45.613Z,99.49
2016-02-04T11:12:45.584Z,99.49
2016-02-04T11:13:45.556Z,99.68
2016-02-04T11:14:45.528Z,99.49
2016-02-04T11:15:45.500Z,99.39
2016-02-04T11:16:45.471Z,99.49
2016-02-04T11:17:45.442Z,99.2
2016-02-04T11:18:45.414Z,99.2
2016-02-04T11:19:45.387Z,99.39
2016-02-04T11:20:45.374Z,99.39
2016-02-04T11:21:45.345Z,99.2
2016-02-04T11:22:45.316Z,99.3
2016-02-04T11:23:45.295Z,99.39
2016-02-04T11:24:45.259Z,99.11
2016-02-04T11:25:45.230Z,99.11
2016-02-04T11:26:45.202Z,98.82
2016-02-04T11:27:45.190Z,99.3
2016-02-04T11:28:45.145Z,98.92
2016-02-04T11:29:45.132Z,99.3
2016-02-04T11:30:45.104Z,99.11
2016-02-04T11:31:45.096Z,99.2
2016-02-04T11:32:45.052Z,99.49
2016-02-04T11:33:45.023Z,99.87
2016-02-04T11:34:44.995Z,99.11
2016-02-04T11:35:44.967Z,99.2
2016-02-04T11:36:44.938Z,98.82
2016-02-04T11:37:44.925Z,99.11
2016-02-04T11:38:44.882Z,99.11
2016-02-04T11:39:44.853Z,98.73
2016-02-04T11:40:44.824Z,98.92
2016-02-04T11:41:44.796Z,99.11
2016-02-04T11:42:44.767Z,99.11
2016-02-04T11:43:44.744Z,98.82
2016-02-04T11:44:44.730Z,99.11
2016-02-04T11:45:44.686Z,98.82
2016-02-04T11:46:44.673Z,98.92
2016-02-04T11:47:44.675Z,99.11
2016-02-04T11:48:44.616Z,99.2
2016-02-04T11:49:44.587Z,98.73
2016-02-04T11:50:44.558Z,99.49
2016-02-04T11:51:44.533Z,99.3
2016-02-04T11:52:44.504Z,99.3
2016-02-04T11:53:44.476Z,99.39
2016-02-04T11:54:44.446Z,99.49
2016-02-04T11:55:44.437Z,99.2
2016-02-04T11:56:44.392Z,98.92
2016-02-04T11:57:44.379Z,99.39
2016-02-04T11:58:44.351Z,99.2
2016-02-04T11:59:44.322Z,99.39
2016-02-04T12:00:44.293Z,99.11
2016-02-04T12:01:44.265Z,98.63
2016-02-04T12:02:44.237Z,98.44
2016-02-04T12:03:44.209Z,98.35
2016-02-04T12:04:44.180Z,98.73
2016-02-04T12:05:44.152Z,98.63
2016-02-04T12:06:44.124Z,98.59
2016-02-04T12:07:44.110Z,98.4
2016-02-04T12:08:44.082Z,98.44
2016-02-04T12:09:44.053Z,98.59
2016-02-04T12:10:44.025Z,98.21
2016-02-04T12:11:43.996Z,98.63
2016-02-04T12:12:43.968Z,98.49
2016-02-04T12:13:43.940Z,98.3
2016-02-04T12:14:43.911Z,98.35
2016-02-04T12:15:43.883Z,98.44
2016-02-04T12:16:43.870Z,98.3
2016-02-04T12:17:43.841Z,98.78
2016-02-04T12:18:43.814Z,98.59
2016-02-04T12:19:43.785Z,98.68
2016-02-04T12:20:43.757Z,98.3
2016-02-04T12:21:43.743Z,98.4
2016-02-04T12:22:43.699Z,98.59
2016-02-04T12:23:43.673Z,98.21
2016-02-04T12:24:43.660Z,98.21
2016-02-04T12:25:43.632Z,98.49
2016-02-04T12:26:43.603Z,97.64
2016-02-04T12:27:43.574Z,97.74
2016-02-04T12:28:43.545Z,97.92
2016-02-04T12:29:43.517Z,98.02
2016-02-04T12:30:43.490Z,97.74
2016-02-04T12:31:43.460Z,97.83
2016-02-04T12:32:43.432Z,97.83
2016-02-04T12:33:43.420Z,97.88
2016-02-04T12:34:43.391Z,97.78
2016-02-04T12:35:43.365Z,97.88
2016-02-04T12:36:43.336Z,97.97
2016-02-04T12:37:43.308Z,97.97
2016-02-04T12:38:43.279Z,97.69
2016-02-04T12:39:43.250Z,97.78
2016-02-04T12:40:43.226Z,98.25
2016-02-04T12:41:43.197Z,98.35
2016-02-04T12:42:43.168Z,97.88
2016-02-04T12:43:43.149Z,97.88
2016-02-04T12:44:43.120Z,98.16
2016-02-04T12:45:43.092Z,98.44
2016-02-04T12:46:43.064Z,98.44
2016-02-04T12:47:43.036Z,98.63
2016-02-04T12:48:43.006Z,98.54
2016-02-04T12:49:42.978Z,98.35
2016-02-04T12:50:42.966Z,98.63
2016-02-04T12:51:42.937Z,98.35
2016-02-04T12:52:42.909Z,98.63
2016-02-04T12:53:42.881Z,98.25